createdAt,value
2023-04-21T00:01:59.569Z,5.15
2023-04-21T00:04:06.040Z,7.75
2023-04-21T00:06:10.925Z,6.78
2023-04-21T00:12:23.852Z,15.48
2023-04-21T00:14:27.882Z,6.38
2023-04-21T00:16:32.208Z,8.82
2023-04-21T00:18:36.649Z,7.63
2023-04-21T00:20:42.958Z,6.63
2023-04-21T00:22:47.324Z,8.82
2023-04-21T00:24:51.708Z,8.20
2023-04-21T00:26:56.370Z,4.28
2023-04-21T00:29:01.322Z,11.35
2023-04-21T00:31:07.344Z,3.15
2023-04-21T00:33:11.755Z,6.53
2023-04-21T00:35:16.217Z,8.68
2023-04-21T00:37:21.943Z,4.65
2023-04-21T00:39:26.083Z,5.30
2023-04-21T00:41:31.082Z,8.02
2023-04-21T00:45:39.838Z,7.68
2023-04-21T00:47:44.229Z,9.80
2023-04-21T00:49:49.145Z,6.63
2023-04-21T00:51:55.246Z,10.10
2023-04-21T00:54:02.116Z,5.32
2023-04-21T00:56:06.753Z,4.70
2023-04-21T00:58:13.138Z,5.68
2023-04-21T01:00:18.402Z,6.53
2023-04-21T01:02:24.586Z,6.82
2023-04-21T01:04:35.766Z,4.55
2023-04-21T01:06:42.296Z,8.15
2023-04-21T01:08:48.250Z,9.15
2023-04-21T01:10:55.264Z,10.88
2023-04-21T01:12:59.627Z,7.00
2023-04-21T01:15:04.113Z,6.18
2023-04-21T01:17:08.982Z,8.73
2023-04-21T01:19:13.970Z,7.20
2023-04-21T01:21:20.546Z,8.52
2023-04-21T01:23:26.285Z,6.90
2023-04-21T01:25:31.076Z,8.10
2023-04-21T01:27:35.569Z,8.95
2023-04-21T01:29:39.952Z,11.23
2023-04-21T01:31:47.890Z,9.32
2023-04-21T01:33:51.840Z,5.80
2023-04-21T01:35:55.707Z,5.13
2023-04-21T01:37:59.732Z,8.25
2023-04-21T01:40:09.316Z,6.10
2023-04-21T01:42:13.733Z,6.28
2023-04-21T01:44:19.134Z,11.18
2023-04-21T01:46:23.443Z,4.88
2023-04-21T01:48:27.489Z,11.05
2023-04-21T01:50:31.459Z,12.27
2023-04-21T01:52:35.203Z,16.83
2023-04-21T01:54:39.010Z,13.75
2023-04-21T01:56:45.480Z,14.93
2023-04-21T01:58:49.333Z,10.48
2023-04-21T02:00:53.583Z,9.30
2023-04-21T02:02:58.939Z,13.02
2023-04-21T02:05:02.827Z,7.22
2023-04-21T02:07:07.401Z,16.20
2023-04-21T02:09:11.103Z,8.32
2023-04-21T02:11:14.970Z,11.77
2023-04-21T02:13:20.282Z,7.03
2023-04-21T02:17:28.071Z,11.82
2023-04-21T02:19:33.974Z,10.32
2023-04-21T02:21:37.648Z,13.60
2023-04-21T02:23:41.549Z,15.10
2023-04-21T02:25:45.305Z,11.85
2023-04-21T02:27:49.294Z,14.48
2023-04-21T02:29:54.403Z,14.05
2023-04-21T02:34:18.071Z,10.35
2023-04-21T02:36:21.934Z,7.82
2023-04-21T02:38:26.016Z,13.32
2023-04-21T02:40:29.885Z,11.30
2023-04-21T02:42:34.940Z,11.18
2023-04-21T02:44:39.619Z,12.55
2023-04-21T02:46:45.484Z,19.15
2023-04-21T02:48:49.311Z,17.55
2023-04-21T02:50:54.220Z,14.82
2023-04-21T02:52:58.004Z,14.15
2023-04-21T02:55:01.853Z,11.65
2023-04-21T02:57:05.568Z,10.90
2023-04-21T02:59:11.555Z,14.00
2023-04-21T03:01:16.968Z,10.90
2023-04-21T03:03:22.517Z,15.75
2023-04-21T03:05:26.539Z,16.25
2023-04-21T03:07:30.196Z,9.15
2023-04-21T03:09:34.039Z,11.20
2023-04-21T03:11:37.913Z,12.93
2023-04-21T03:13:41.629Z,12.07
2023-04-21T03:15:46.581Z,10.32
2023-04-21T03:17:53.275Z,11.55
2023-04-21T03:20:01.462Z,11.05
2023-04-21T03:22:05.298Z,11.38
2023-04-21T03:24:09.558Z,8.63
2023-04-21T03:26:13.485Z,13.02
2023-04-21T03:28:17.792Z,10.55
2023-04-21T03:30:22.603Z,12.82
2023-04-21T03:32:26.989Z,11.43
2023-04-21T03:34:31.251Z,9.70
2023-04-21T03:36:38.896Z,11.98
2023-04-21T03:38:44.134Z,8.18
2023-04-21T03:40:47.902Z,8.50
2023-04-21T03:42:51.556Z,15.57
2023-04-21T03:44:56.126Z,9.80
2023-04-21T03:47:00.164Z,12.25
2023-04-21T03:49:03.996Z,14.43
2023-04-21T03:51:07.696Z,9.07
2023-04-21T03:53:12.809Z,10.63
2023-04-21T03:57:20.057Z,11.68
2023-04-21T03:59:23.814Z,14.43
2023-04-21T04:01:27.612Z,14.30
2023-04-21T04:03:31.624Z,12.60
2023-04-21T04:05:37.384Z,9.90
2023-04-21T04:07:41.229Z,11.85
2023-04-21T04:09:46.481Z,8.65
2023-04-21T04:11:50.279Z,11.45
2023-04-21T04:13:54.125Z,9.88
2023-04-21T04:15:58.152Z,8.13
2023-04-21T04:18:02.260Z,11.48
2023-04-21T04:20:08.498Z,9.02
2023-04-21T04:22:12.348Z,10.73
2023-04-21T04:24:16.186Z,7.47
2023-04-21T04:26:22.794Z,14.63
2023-04-21T04:28:26.536Z,11.23
2023-04-21T04:30:30.042Z,15.05
2023-04-21T04:32:34.869Z,11.68
2023-04-21T04:34:38.833Z,10.88
2023-04-21T04:36:43.489Z,14.50
2023-04-21T04:38:47.135Z,11.18
2023-04-21T04:40:55.811Z,10.88
2023-04-21T04:43:01.427Z,12.75
2023-04-21T04:45:05.600Z,9.68
2023-04-21T04:47:09.186Z,9.57
2023-04-21T04:49:12.845Z,14.70
2023-04-21T04:51:16.493Z,9.95
2023-04-21T04:53:20.089Z,11.32
2023-04-21T04:55:23.950Z,16.92
2023-04-21T04:57:27.669Z,14.73
2023-04-21T04:59:32.669Z,12.45
2023-04-21T05:01:38.254Z,10.82
2023-04-21T05:03:41.974Z,8.10
2023-04-21T05:05:46.346Z,10.50
2023-04-21T05:07:49.776Z,7.40
2023-04-21T05:09:53.285Z,14.52
2023-04-21T05:11:56.798Z,14.15
2023-04-21T05:14:00.281Z,11.73
2023-04-21T05:16:05.254Z,12.57
2023-04-21T05:18:09.053Z,12.77
2023-04-21T05:20:13.095Z,10.65
2023-04-21T05:22:16.543Z,10.70
2023-04-21T05:24:23.350Z,9.30
2023-04-21T05:26:28.839Z,11.90
2023-04-21T05:28:32.435Z,12.93
2023-04-21T05:30:35.873Z,12.85
2023-04-21T05:32:41.295Z,14.20
2023-04-21T05:34:44.960Z,13.43
2023-04-21T05:36:49.194Z,9.85
2023-04-21T05:38:52.934Z,8.93
2023-04-21T05:40:56.848Z,16.80
2023-04-21T05:43:00.424Z,13.25
2023-04-21T05:45:04.230Z,13.73
2023-04-21T05:47:08.114Z,16.77
2023-04-21T05:49:12.979Z,9.38
2023-04-21T05:51:17.078Z,12.25
2023-04-21T05:53:20.598Z,12.63
2023-04-21T05:55:24.135Z,11.30
2023-04-21T05:57:27.822Z,11.57
2023-04-21T05:59:31.703Z,11.73
2023-04-21T06:01:36.128Z,12.85
2023-04-21T06:03:40.100Z,9.05
2023-04-21T06:05:45.199Z,12.18
2023-04-21T06:09:52.424Z,12.27
2023-04-21T06:11:57.086Z,10.52
2023-04-21T06:14:01.948Z,14.10
2023-04-21T06:16:05.690Z,10.52
2023-04-21T06:18:09.213Z,11.70
2023-04-21T06:20:13.700Z,11.52
2023-04-21T06:22:18.670Z,20.38
2023-04-21T06:24:25.667Z,12.50
2023-04-21T06:26:29.387Z,14.10
2023-04-21T06:28:33.221Z,10.40
2023-04-21T06:30:36.826Z,14.23
2023-04-21T06:32:40.485Z,10.98
2023-04-21T06:34:43.910Z,20.00
2023-04-21T06:36:47.470Z,15.95
2023-04-21T06:38:52.329Z,10.40
2023-04-21T06:40:55.717Z,12.73
2023-04-21T06:42:59.154Z,14.02
2023-04-21T06:45:02.871Z,10.20
2023-04-21T06:47:06.462Z,15.45
2023-04-21T06:49:10.308Z,12.98
2023-04-21T06:51:13.809Z,12.98
2023-04-21T06:53:18.196Z,14.75
2023-04-21T06:55:23.194Z,12.23
2023-04-21T06:57:26.626Z,11.32
2023-04-21T06:59:31.025Z,8.10
2023-04-21T07:01:35.311Z,15.48
2023-04-21T07:03:39.997Z,14.15
2023-04-21T07:05:44.635Z,15.25
2023-04-21T07:07:49.255Z,13.02
2023-04-21T07:09:53.112Z,11.82
2023-04-21T07:11:58.917Z,14.13
2023-04-21T07:14:02.762Z,15.80
2023-04-21T07:16:07.536Z,12.25
2023-04-21T07:18:11.649Z,16.15
2023-04-21T07:20:16.033Z,10.13
2023-04-21T07:22:20.054Z,11.63
2023-04-21T07:24:24.225Z,13.68
2023-04-21T07:26:28.271Z,15.65
2023-04-21T07:28:33.500Z,18.30
2023-04-21T07:30:37.404Z,13.20
2023-04-21T07:32:41.511Z,10.30
2023-04-21T07:34:47.431Z,17.75
2023-04-21T07:36:52.502Z,17.33
2023-04-21T07:41:00.425Z,21.80
2023-04-21T07:43:04.213Z,13.10
2023-04-21T07:45:10.417Z,15.38
2023-04-21T07:47:14.425Z,13.18
2023-04-21T07:49:18.782Z,14.73
2023-04-21T07:51:22.396Z,15.48
2023-04-21T07:53:26.254Z,16.50
2023-04-21T07:55:29.914Z,12.13
2023-04-21T07:57:35.225Z,11.02
2023-04-21T07:59:38.962Z,15.35
2023-04-21T08:01:44.065Z,13.25
2023-04-21T08:03:47.891Z,15.85
2023-04-21T08:05:51.887Z,12.57
2023-04-21T08:07:55.891Z,13.85
2023-04-21T08:10:00.462Z,15.48
2023-04-21T08:12:04.443Z,9.45
2023-04-21T08:14:10.318Z,13.90
2023-04-21T08:16:13.966Z,11.40
2023-04-21T08:18:21.416Z,16.88
2023-04-21T08:20:26.156Z,12.10
2023-04-21T08:22:29.632Z,12.82
2023-04-21T08:24:33.440Z,11.25
2023-04-21T08:26:37.220Z,19.33
2023-04-21T08:28:40.916Z,12.68
2023-04-21T08:30:44.642Z,11.30
2023-04-21T08:32:49.536Z,11.55
2023-04-21T08:34:55.438Z,8.43
2023-04-21T08:36:59.460Z,13.27
2023-04-21T08:39:03.411Z,13.80
2023-04-21T08:41:08.855Z,14.93
2023-04-21T08:43:12.672Z,10.85
2023-04-21T08:45:17.055Z,13.77
2023-04-21T08:47:23.937Z,13.57
2023-04-21T08:49:30.586Z,13.43
2023-04-21T08:51:36.778Z,13.90
2023-04-21T08:53:42.711Z,12.45
2023-04-21T08:55:53.695Z,15.60
2023-04-21T08:58:06.984Z,11.35
2023-04-21T09:00:11.783Z,12.93
2023-04-21T09:02:16.970Z,13.43
2023-04-21T09:04:20.725Z,11.77
2023-04-21T09:06:24.686Z,15.23
2023-04-21T09:08:30.607Z,11.52
2023-04-21T09:10:34.259Z,12.60
2023-04-21T09:12:41.039Z,14.52
2023-04-21T09:14:44.996Z,12.80
2023-04-21T09:17:01.857Z,14.77
2023-04-21T09:19:15.090Z,17.00
2023-04-21T09:21:20.625Z,18.95
2023-04-21T09:23:24.398Z,15.65
2023-04-21T09:25:29.382Z,15.43
2023-04-21T09:27:32.989Z,13.90
2023-04-21T09:29:36.550Z,13.65
2023-04-21T09:31:40.541Z,15.13
2023-04-21T09:33:57.753Z,14.40
2023-04-21T09:36:04.489Z,16.83
2023-04-21T09:38:13.081Z,16.35
2023-04-21T09:40:19.484Z,12.98
2023-04-21T09:42:30.705Z,13.52
2023-04-21T09:47:01.931Z,14.05
2023-04-21T09:53:19.236Z,11.38
2023-04-21T09:55:27.281Z,21.15
2023-04-21T09:57:33.695Z,14.20
2023-04-21T09:59:38.610Z,15.98
2023-04-21T10:01:42.741Z,14.48
2023-04-21T10:03:49.336Z,16.40
2023-04-21T10:05:53.282Z,21.80
2023-04-21T10:07:58.075Z,17.65
2023-04-21T10:10:02.824Z,16.60
2023-04-21T10:12:09.467Z,22.55
2023-04-21T10:14:14.878Z,17.35
2023-04-21T10:18:25.593Z,17.83
2023-04-21T10:20:30.586Z,18.45
2023-04-21T10:22:35.211Z,20.98
2023-04-21T10:24:40.430Z,13.13
2023-04-21T10:26:44.330Z,18.02
2023-04-21T10:28:55.916Z,16.10
2023-04-21T10:31:39.696Z,14.73
2023-04-21T10:33:43.450Z,19.23
2023-04-21T10:36:04.089Z,19.52
2023-04-21T10:38:08.749Z,21.20
2023-04-21T10:42:45.896Z,20.00
2023-04-21T10:44:54.501Z,13.70
2023-04-21T10:47:01.014Z,12.82
2023-04-21T10:49:09.203Z,13.65
2023-04-21T10:51:12.975Z,20.33
2023-04-21T10:53:18.310Z,16.77
2023-04-21T10:55:22.637Z,20.27
2023-04-21T10:57:26.467Z,23.58
2023-04-21T10:59:30.117Z,20.20
2023-04-21T11:01:33.774Z,15.75
2023-04-21T11:03:39.413Z,19.90
2023-04-21T11:05:43.414Z,18.25
2023-04-21T11:07:47.383Z,17.45
2023-04-21T11:09:59.518Z,19.50
2023-04-21T11:12:04.786Z,20.05
2023-04-21T11:14:08.334Z,19.88
2023-04-21T11:16:11.950Z,12.27
2023-04-21T11:18:16.261Z,17.52
2023-04-21T11:20:21.552Z,20.63
2023-04-21T11:22:26.717Z,17.50
2023-04-21T11:26:35.084Z,21.23
2023-04-21T11:30:41.920Z,18.30
2023-04-21T11:32:45.823Z,14.50
2023-04-21T11:34:49.852Z,18.85
2023-04-21T11:36:56.041Z,16.50
2023-04-21T11:39:00.411Z,17.98
2023-04-21T11:41:04.056Z,14.35
2023-04-21T11:43:07.704Z,17.90
2023-04-21T11:45:21.288Z,17.60
2023-04-21T11:47:27.331Z,19.02
2023-04-21T11:49:32.084Z,16.67
2023-04-21T11:51:36.835Z,22.02
2023-04-21T11:53:42.046Z,18.17
2023-04-21T11:55:45.919Z,21.85
2023-04-21T11:57:52.595Z,23.95
2023-04-21T11:59:56.412Z,19.48
2023-04-21T12:01:59.970Z,16.08
2023-04-21T12:04:05.724Z,19.73
2023-04-21T12:06:09.868Z,17.20
2023-04-21T12:08:16.716Z,19.25
2023-04-21T12:10:22.826Z,12.45
2023-04-21T12:12:26.461Z,17.67
2023-04-21T12:14:30.001Z,19.23
2023-04-21T12:16:33.583Z,15.30
2023-04-21T12:18:38.001Z,20.50
2023-04-21T12:20:50.991Z,17.65
2023-04-21T12:22:54.757Z,19.25
2023-04-21T12:24:58.452Z,16.20
2023-04-21T12:27:03.771Z,11.77
2023-04-21T12:29:07.668Z,17.42
2023-04-21T12:31:11.317Z,15.50
2023-04-21T12:33:14.933Z,15.68
2023-04-21T12:35:19.311Z,12.55
2023-04-21T12:37:23.441Z,17.17
2023-04-21T12:39:27.088Z,13.70
2023-04-21T12:41:31.070Z,15.32
2023-04-21T12:43:36.699Z,14.30
2023-04-21T12:45:40.668Z,16.73
2023-04-21T12:47:46.911Z,13.98
2023-04-21T12:49:51.077Z,15.93
2023-04-21T12:51:55.377Z,11.77
2023-04-21T12:53:59.304Z,22.95
2023-04-21T12:56:05.180Z,18.23
2023-04-21T12:58:10.225Z,16.83
2023-04-21T13:00:16.987Z,14.18
2023-04-21T13:02:20.958Z,16.17
2023-04-21T13:04:25.230Z,16.02
2023-04-21T13:06:29.789Z,15.32
2023-04-21T13:08:33.636Z,17.35
2023-04-21T13:10:37.449Z,15.45
2023-04-21T13:12:41.837Z,13.05
2023-04-21T13:14:45.993Z,13.73
2023-04-21T13:16:51.693Z,14.60
2023-04-21T13:18:55.888Z,15.48
2023-04-21T13:20:59.816Z,16.67
2023-04-21T13:23:03.490Z,16.17
2023-04-21T13:25:07.969Z,12.68
2023-04-21T13:27:11.701Z,15.05
2023-04-21T13:29:15.422Z,13.02
2023-04-21T13:31:19.238Z,17.15
2023-04-21T13:33:24.355Z,13.23
2023-04-21T13:35:28.130Z,17.02
2023-04-21T13:37:31.915Z,18.25
2023-04-21T13:39:35.566Z,12.40
2023-04-21T13:41:39.295Z,16.70
2023-04-21T13:43:42.906Z,16.08
2023-04-21T13:45:48.274Z,26.98
2023-04-21T13:47:53.111Z,15.60
2023-04-21T13:52:01.703Z,18.15
2023-04-21T13:54:05.439Z,18.38
2023-04-21T13:56:10.602Z,20.40
2023-04-21T13:58:16.975Z,16.83
2023-04-21T14:00:22.652Z,16.88
2023-04-21T14:02:26.450Z,16.02
2023-04-21T14:04:30.574Z,17.38
2023-04-21T14:06:35.851Z,18.42
2023-04-21T14:08:43.134Z,15.15
2023-04-21T14:10:48.197Z,23.50
2023-04-21T14:12:53.381Z,16.42
2023-04-21T14:14:59.461Z,19.88
2023-04-21T14:17:04.471Z,19.55
2023-04-21T14:21:13.123Z,17.42
2023-04-21T14:23:18.415Z,16.60
2023-04-21T14:25:22.101Z,16.80
2023-04-21T14:27:26.009Z,18.92
2023-04-21T14:29:29.694Z,16.77
2023-04-21T14:31:33.341Z,17.42
2023-04-21T14:33:37.103Z,17.85
2023-04-21T14:35:41.526Z,13.98
2023-04-21T14:37:45.368Z,19.13
2023-04-21T14:39:51.155Z,24.73
2023-04-21T14:41:55.158Z,19.27
2023-04-21T14:44:00.603Z,16.70
2023-04-21T14:46:04.865Z,15.70
2023-04-21T14:48:08.775Z,20.63
2023-04-21T14:50:12.947Z,16.88
2023-04-21T14:52:16.781Z,16.75
2023-04-21T14:54:20.901Z,16.63
2023-04-21T14:56:26.127Z,17.77
2023-04-21T14:58:30.234Z,24.52
2023-04-21T15:00:36.693Z,18.00
2023-04-21T15:02:40.894Z,18.55
2023-04-21T15:04:45.149Z,18.00
2023-04-21T15:06:48.922Z,20.35
2023-04-21T15:08:52.712Z,19.60
2023-04-21T15:10:56.888Z,21.33
2023-04-21T15:13:01.957Z,15.98
2023-04-21T15:15:06.297Z,21.55
2023-04-21T15:17:10.104Z,16.13
2023-04-21T15:19:14.486Z,13.10
2023-04-21T15:21:18.360Z,22.80
2023-04-21T15:23:21.856Z,22.13
2023-04-21T15:25:25.792Z,16.70
2023-04-21T15:27:29.585Z,28.75
2023-04-21T15:29:34.668Z,18.73
2023-04-21T15:31:38.702Z,17.02
2023-04-21T15:33:42.898Z,20.33
2023-04-21T15:35:48.577Z,15.82
2023-04-21T15:37:53.067Z,24.75
2023-04-21T15:39:58.110Z,19.35
2023-04-21T15:46:13.484Z,23.85
2023-04-21T15:48:17.829Z,21.42
2023-04-21T15:50:21.953Z,20.83
2023-04-21T15:52:26.134Z,19.05
2023-04-21T15:54:29.559Z,27.13
2023-04-21T15:56:33.590Z,23.67
2023-04-21T15:58:37.176Z,23.83
2023-04-21T16:00:41.882Z,28.05
2023-04-21T16:02:47.340Z,29.02
2023-04-21T16:04:51.204Z,34.25
2023-04-21T16:06:55.181Z,23.52
2023-04-21T16:08:59.226Z,19.63
2023-04-21T16:11:03.092Z,25.92
2023-04-21T16:13:07.064Z,25.25
2023-04-21T16:17:20.582Z,23.73
2023-04-21T16:19:25.914Z,25.67
2023-04-21T16:21:30.016Z,25.92
2023-04-21T16:23:34.349Z,27.42
2023-04-21T16:25:40.119Z,21.52
2023-04-21T16:27:44.130Z,26.63
2023-04-21T16:29:48.055Z,19.85
2023-04-21T16:31:52.103Z,20.88
2023-04-21T16:34:00.284Z,20.10
2023-04-21T16:36:05.926Z,24.45
2023-04-21T16:38:09.907Z,25.17
2023-04-21T16:40:14.403Z,23.30
2023-04-21T16:42:18.099Z,23.35
2023-04-21T16:44:22.106Z,26.45
2023-04-21T16:46:26.196Z,33.22
2023-04-21T16:48:29.962Z,23.77
2023-04-21T16:50:36.185Z,22.35
2023-04-21T16:52:44.193Z,23.75
2023-04-21T16:54:51.584Z,23.02
2023-04-21T16:56:58.254Z,24.58
2023-04-21T16:59:02.549Z,20.38
2023-04-21T17:01:08.027Z,19.98
2023-04-21T17:03:11.902Z,29.40
2023-04-21T17:05:16.618Z,25.27
2023-04-21T17:07:20.263Z,21.55
2023-04-21T17:09:25.506Z,23.02
2023-04-21T17:11:30.098Z,20.67
2023-04-21T17:13:38.278Z,18.92
2023-04-21T17:15:42.428Z,24.15
2023-04-21T17:17:47.303Z,24.02
2023-04-21T17:19:51.113Z,23.65
2023-04-21T17:21:54.916Z,25.98
2023-04-21T17:23:58.960Z,23.75
2023-04-21T17:26:05.329Z,21.27
2023-04-21T17:28:09.036Z,28.23
2023-04-21T17:30:13.475Z,25.50
2023-04-21T17:32:17.350Z,27.35
2023-04-21T17:34:21.024Z,21.63
2023-04-21T17:36:24.855Z,18.23
2023-04-21T17:38:28.511Z,26.15
2023-04-21T17:40:32.315Z,15.70
2023-04-21T17:42:37.651Z,21.33
2023-04-21T17:44:41.424Z,22.42
2023-04-21T17:46:45.166Z,19.77
2023-04-21T17:49:07.629Z,22.88
2023-04-21T17:51:11.962Z,27.40
2023-04-21T17:53:15.970Z,19.85
2023-04-21T17:55:19.920Z,22.80
2023-04-21T17:57:23.696Z,22.10
2023-04-21T17:59:29.344Z,19.70
2023-04-21T18:01:33.224Z,16.85
2023-04-21T18:03:37.856Z,25.15
2023-04-21T18:05:42.320Z,19.70
2023-04-21T18:07:46.657Z,20.85
2023-04-21T18:09:51.979Z,20.52
2023-04-21T18:11:57.245Z,19.25
2023-04-21T18:14:02.021Z,25.00
2023-04-21T18:16:08.045Z,20.08
2023-04-21T18:18:12.887Z,26.48
2023-04-21T18:20:17.727Z,22.30
2023-04-21T18:22:22.636Z,22.58
2023-04-21T18:26:29.978Z,23.80
2023-04-21T18:28:33.607Z,27.85
2023-04-21T18:30:37.432Z,22.58
2023-04-21T18:32:43.269Z,23.58
2023-04-21T18:34:47.751Z,27.33
2023-04-21T18:36:52.104Z,28.15
2023-04-21T18:38:59.705Z,40.10
2023-04-21T18:41:04.132Z,34.42
2023-04-21T18:43:09.872Z,39.72
2023-04-21T18:45:14.027Z,25.10
2023-04-21T18:47:18.216Z,25.27
2023-04-21T18:49:23.589Z,32.17
2023-04-21T18:51:31.988Z,26.88
2023-04-21T18:53:35.944Z,31.10
2023-04-21T18:55:40.280Z,35.22
2023-04-21T18:57:44.903Z,35.83
2023-04-21T18:59:49.636Z,23.08
2023-04-21T19:01:54.357Z,28.05
2023-04-21T19:04:00.273Z,28.17
2023-04-21T19:06:06.278Z,22.45
2023-04-21T19:08:11.195Z,25.13
2023-04-21T19:10:15.381Z,20.50
2023-04-21T19:12:19.597Z,29.42
2023-04-21T19:14:39.515Z,24.38
2023-04-21T19:16:56.371Z,24.08
2023-04-21T19:19:02.543Z,21.15
2023-04-21T19:21:14.291Z,32.10
2023-04-21T19:23:21.379Z,21.17
2023-04-21T19:25:27.424Z,19.77
2023-04-21T19:27:32.386Z,22.88
2023-04-21T19:29:40.670Z,27.42
2023-04-21T19:31:45.209Z,27.13
2023-04-21T19:33:50.953Z,27.23
2023-04-21T19:35:55.503Z,21.95
2023-04-21T19:38:01.575Z,29.35
2023-04-21T19:40:08.882Z,25.45
2023-04-21T19:42:13.345Z,24.58
2023-04-21T19:44:17.857Z,25.77
2023-04-21T19:46:23.057Z,28.67
2023-04-21T19:48:27.793Z,21.08
2023-04-21T19:50:35.605Z,27.30
2023-04-21T19:52:40.044Z,21.27
2023-04-21T19:54:47.161Z,25.50
2023-04-21T19:56:52.125Z,21.17
2023-04-21T19:58:57.655Z,27.75
2023-04-21T20:01:08.095Z,24.13
2023-04-21T20:03:13.856Z,20.90
2023-04-21T20:05:19.015Z,24.88
2023-04-21T20:09:28.519Z,22.10
2023-04-21T20:11:35.445Z,21.77
2023-04-21T20:13:40.469Z,26.02
2023-04-21T20:15:45.318Z,29.10
2023-04-21T20:17:56.069Z,22.88
2023-04-21T20:20:01.919Z,27.00
2023-04-21T20:24:12.704Z,26.92
2023-04-21T20:26:23.328Z,21.95
2023-04-21T20:28:33.104Z,23.75
2023-04-21T20:30:38.206Z,20.10
2023-04-21T20:32:43.187Z,22.52
2023-04-21T20:34:49.104Z,18.13
2023-04-21T20:36:56.087Z,25.88
2023-04-21T20:39:01.496Z,21.98
2023-04-21T20:41:06.760Z,23.05
2023-04-21T20:43:12.705Z,27.50
2023-04-21T20:45:19.098Z,22.45
2023-04-21T20:47:25.743Z,25.73
2023-04-21T20:49:30.122Z,22.85
2023-04-21T20:51:34.818Z,22.45
2023-04-21T20:53:39.298Z,21.90
2023-04-21T20:55:44.542Z,25.50
2023-04-21T20:57:49.843Z,22.73
2023-04-21T20:59:54.371Z,27.83
2023-04-21T21:02:00.703Z,26.20
2023-04-21T21:04:05.444Z,16.85
2023-04-21T21:06:10.136Z,25.73
2023-04-21T21:08:15.452Z,28.85
2023-04-21T21:10:20.470Z,20.23
2023-04-21T21:12:27.642Z,20.35
2023-04-21T21:14:32.971Z,23.98
2023-04-21T21:18:44.774Z,29.42
2023-04-21T21:20:49.588Z,20.15
2023-04-21T21:22:53.717Z,21.20
2023-04-21T21:24:58.243Z,23.17
2023-04-21T21:27:02.769Z,24.40
2023-04-21T21:29:07.486Z,27.98
2023-04-21T21:31:12.834Z,25.38
2023-04-21T21:33:17.770Z,30.48
2023-04-21T21:35:24.145Z,26.75
2023-04-21T21:37:28.816Z,23.25
2023-04-21T21:39:33.854Z,27.75
2023-04-21T21:43:41.592Z,26.55
2023-04-21T21:45:46.383Z,28.80
2023-04-21T21:47:51.706Z,24.85
2023-04-21T21:49:58.905Z,35.03
2023-04-21T21:52:05.151Z,37.42
2023-04-21T21:54:09.325Z,31.63
2023-04-21T21:56:12.926Z,28.65
2023-04-21T21:58:17.131Z,29.75
2023-04-21T22:00:21.458Z,29.27
2023-04-21T22:02:25.495Z,31.48
2023-04-21T22:04:29.837Z,24.85
2023-04-21T22:06:35.003Z,25.77
2023-04-21T22:08:40.323Z,37.13
2023-04-21T22:10:44.439Z,29.67
2023-04-21T22:12:48.336Z,28.98
2023-04-21T22:14:53.064Z,30.38
2023-04-21T22:16:57.637Z,29.05
2023-04-21T22:19:01.681Z,30.27
2023-04-21T22:21:05.811Z,31.48
2023-04-21T22:23:09.322Z,27.98
2023-04-21T22:25:16.223Z,24.80
2023-04-21T22:27:20.089Z,28.83
2023-04-21T22:29:23.993Z,24.83
2023-04-21T22:31:27.720Z,27.83
2023-04-21T22:33:31.375Z,36.80
2023-04-21T22:35:34.987Z,38.13
2023-04-21T22:37:38.698Z,31.20
2023-04-21T22:39:42.565Z,31.92
2023-04-21T22:41:47.864Z,33.78
2023-04-21T22:43:51.592Z,30.15
2023-04-21T22:45:55.703Z,29.95
2023-04-21T22:47:59.612Z,21.65
2023-04-21T22:50:04.588Z,26.75
2023-04-21T22:52:08.432Z,26.17
2023-04-21T22:54:12.502Z,30.20
2023-04-21T22:56:16.421Z,29.50
2023-04-21T22:58:21.458Z,24.65
2023-04-21T23:02:28.468Z,28.05
2023-04-21T23:04:32.164Z,27.73
2023-04-21T23:06:35.909Z,34.08
2023-04-21T23:08:39.779Z,25.30
2023-04-21T23:10:43.623Z,29.98
2023-04-21T23:12:47.620Z,23.40
2023-04-21T23:14:53.207Z,26.55
2023-04-21T23:16:57.040Z,27.27
2023-04-21T23:19:00.927Z,26.63
2023-04-21T23:21:04.470Z,24.35
2023-04-21T23:23:08.258Z,30.05
2023-04-21T23:25:12.296Z,34.95
2023-04-21T23:27:15.821Z,32.30
2023-04-21T23:29:19.551Z,32.75
2023-04-21T23:31:26.246Z,29.67
2023-04-21T23:33:29.932Z,27.58
2023-04-21T23:35:33.737Z,26.85
2023-04-21T23:37:37.407Z,34.83
2023-04-21T23:39:41.036Z,32.97
2023-04-21T23:41:44.880Z,32.70
2023-04-21T23:43:48.493Z,29.85
2023-04-21T23:45:52.247Z,30.05
2023-04-21T23:47:57.613Z,26.48
2023-04-21T23:50:01.783Z,29.70
2023-04-21T23:52:05.784Z,28.80
2023-04-21T23:54:09.756Z,32.63
2023-04-21T23:56:13.604Z,28.52
2023-04-21T23:58:17.357Z,28.70
